sensor_id;sensor_type;location;lat;lon;timestamp;P1;durP1;ratioP1;P2;durP2;ratioP2
66400;SDS011;53211;45.040;38.788;2022-12-18T00:01:52;708.47;;;149.65;;
66400;SDS011;53211;45.040;38.788;2022-12-18T00:04:25;730.20;;;148.00;;
66400;SDS011;53211;45.040;38.788;2022-12-18T00:06:52;711.73;;;147.63;;
66400;SDS011;53211;45.040;38.788;2022-12-18T00:09:18;705.20;;;149.27;;
66400;SDS011;53211;45.040;38.788;2022-12-18T00:11:45;700.30;;;148.90;;
66400;SDS011;53211;45.040;38.788;2022-12-18T00:14:11;699.80;;;149.25;;
66400;SDS011;53211;45.040;38.788;2022-12-18T00:16:38;703.30;;;149.20;;
66400;SDS011;53211;45.040;38.788;2022-12-18T00:19:05;704.10;;;149.90;;
66400;SDS011;53211;45.040;38.788;2022-12-18T00:21:32;697.37;;;149.43;;
66400;SDS011;53211;45.040;38.788;2022-12-18T00:23:59;698.45;;;150.25;;
66400;SDS011;53211;45.040;38.788;2022-12-18T00:26:26;696.70;;;149.40;;
66400;SDS011;53211;45.040;38.788;2022-12-18T00:29:12;696.93;;;149.73;;
66400;SDS011;53211;45.040;38.788;2022-12-18T00:31:39;698.97;;;150.03;;
66400;SDS011;53211;45.040;38.788;2022-12-18T00:34:05;706.13;;;149.03;;
66400;SDS011;53211;45.040;38.788;2022-12-18T00:36:32;707.10;;;148.77;;
66400;SDS011;53211;45.040;38.788;2022-12-18T00:39:00;705.10;;;148.50;;
66400;SDS011;53211;45.040;38.788;2022-12-18T00:41:27;701.78;;;149.48;;
66400;SDS011;53211;45.040;38.788;2022-12-18T00:44:13;705.73;;;147.93;;
66400;SDS011;53211;45.040;38.788;2022-12-18T00:46:40;695.50;;;149.40;;
66400;SDS011;53211;45.040;38.788;2022-12-18T00:49:07;693.90;;;149.50;;
66400;SDS011;53211;45.040;38.788;2022-12-18T00:51:33;704.70;;;149.40;;
66400;SDS011;53211;45.040;38.788;2022-12-18T00:53:59;703.42;;;149.35;;
66400;SDS011;53211;45.040;38.788;2022-12-18T00:56:25;716.30;;;147.60;;
66400;SDS011;53211;45.040;38.788;2022-12-18T00:58:51;723.70;;;148.05;;
66400;SDS011;53211;45.040;38.788;2022-12-18T01:01:18;725.70;;;147.90;;
66400;SDS011;53211;45.040;38.788;2022-12-18T01:03:44;719.60;;;147.73;;
66400;SDS011;53211;45.040;38.788;2022-12-18T01:06:12;718.60;;;147.83;;
66400;SDS011;53211;45.040;38.788;2022-12-18T01:08:40;718.23;;;148.10;;
66400;SDS011;53211;45.040;38.788;2022-12-18T01:11:09;709.07;;;147.37;;
66400;SDS011;53211;45.040;38.788;2022-12-18T01:13:38;716.85;;;148.05;;
66400;SDS011;53211;45.040;38.788;2022-12-18T01:16:04;698.03;;;149.17;;
66400;SDS011;53211;45.040;38.788;2022-12-18T01:18:34;698.53;;;149.13;;
66400;SDS011;53211;45.040;38.788;2022-12-18T01:21:00;698.87;;;148.77;;
66400;SDS011;53211;45.040;38.788;2022-12-18T01:23:30;711.00;;;146.60;;
66400;SDS011;53211;45.040;38.788;2022-12-18T01:26:03;698.70;;;147.50;;
66400;SDS011;53211;45.040;38.788;2022-12-18T01:28:34;697.55;;;148.30;;
66400;SDS011;53211;45.040;38.788;2022-12-18T01:33:37;695.75;;;149.90;;
66400;SDS011;53211;45.040;38.788;2022-12-18T01:36:05;707.97;;;146.63;;
66400;SDS011;53211;45.040;38.788;2022-12-18T01:38:31;697.95;;;149.30;;
66400;SDS011;53211;45.040;38.788;2022-12-18T01:40:58;698.83;;;148.60;;
66400;SDS011;53211;45.040;38.788;2022-12-18T01:43:41;699.90;;;148.40;;
66400;SDS011;53211;45.040;38.788;2022-12-18T01:46:07;698.30;;;148.55;;
66400;SDS011;53211;45.040;38.788;2022-12-18T01:48:34;698.10;;;146.35;;
66400;SDS011;53211;45.040;38.788;2022-12-18T01:51:00;702.50;;;146.10;;
66400;SDS011;53211;45.040;38.788;2022-12-18T01:53:26;695.60;;;146.60;;
66400;SDS011;53211;45.040;38.788;2022-12-18T01:55:53;697.95;;;147.75;;
66400;SDS011;53211;45.040;38.788;2022-12-18T01:58:28;693.13;;;145.93;;
66400;SDS011;53211;45.040;38.788;2022-12-18T02:01:01;696.50;;;147.13;;
66400;SDS011;53211;45.040;38.788;2022-12-18T02:03:27;692.78;;;147.10;;
66400;SDS011;53211;45.040;38.788;2022-12-18T02:05:56;692.50;;;147.60;;
66400;SDS011;53211;45.040;38.788;2022-12-18T02:09:02;691.97;;;147.55;;
66400;SDS011;53211;45.040;38.788;2022-12-18T02:11:41;690.70;;;147.10;;
66400;SDS011;53211;45.040;38.788;2022-12-18T02:19:47;688.65;;;146.50;;
66400;SDS011;53211;45.040;38.788;2022-12-18T02:28:06;693.75;;;146.45;;
66400;SDS011;53211;45.040;38.788;2022-12-18T02:30:37;687.10;;;144.87;;
66400;SDS011;53211;45.040;38.788;2022-12-18T02:33:04;688.88;;;146.35;;
66400;SDS011;53211;45.040;38.788;2022-12-18T02:35:33;690.10;;;147.00;;
66400;SDS011;53211;45.040;38.788;2022-12-18T02:38:02;692.95;;;146.20;;
66400;SDS011;53211;45.040;38.788;2022-12-18T02:40:33;693.55;;;146.93;;
66400;SDS011;53211;45.040;38.788;2022-12-18T02:43:07;694.20;;;145.57;;
66400;SDS011;53211;45.040;38.788;2022-12-18T02:45:34;691.92;;;144.50;;
66400;SDS011;53211;45.040;38.788;2022-12-18T02:48:01;694.80;;;146.10;;
66400;SDS011;53211;45.040;38.788;2022-12-18T02:50:37;694.60;;;147.65;;
66400;SDS011;53211;45.040;38.788;2022-12-18T03:04:24;689.10;;;146.20;;
66400;SDS011;53211;45.040;38.788;2022-12-18T03:06:54;691.03;;;146.83;;
66400;SDS011;53211;45.040;38.788;2022-12-18T03:09:27;691.17;;;146.47;;
66400;SDS011;53211;45.040;38.788;2022-12-18T03:12:00;692.10;;;147.20;;
66400;SDS011;53211;45.040;38.788;2022-12-18T03:17:27;687.10;;;146.55;;
66400;SDS011;53211;45.040;38.788;2022-12-18T03:19:56;685.90;;;146.45;;
66400;SDS011;53211;45.040;38.788;2022-12-18T03:22:30;686.40;;;146.55;;
66400;SDS011;53211;45.040;38.788;2022-12-18T03:24:57;689.90;;;147.90;;
66400;SDS011;53211;45.040;38.788;2022-12-18T03:27:28;689.85;;;147.85;;
66400;SDS011;53211;45.040;38.788;2022-12-18T03:30:03;677.70;;;146.40;;
66400;SDS011;53211;45.040;38.788;2022-12-18T03:32:58;686.75;;;145.68;;
66400;SDS011;53211;45.040;38.788;2022-12-18T03:35:31;690.70;;;147.73;;
66400;SDS011;53211;45.040;38.788;2022-12-18T03:38:03;684.45;;;145.60;;
66400;SDS011;53211;45.040;38.788;2022-12-18T03:43:55;694.45;;;146.45;;
66400;SDS011;53211;45.040;38.788;2022-12-18T03:52:36;695.45;;;148.00;;
66400;SDS011;53211;45.040;38.788;2022-12-18T03:55:16;696.80;;;145.95;;
66400;SDS011;53211;45.040;38.788;2022-12-18T03:57:45;698.40;;;146.70;;
66400;SDS011;53211;45.040;38.788;2022-12-18T04:00:14;701.10;;;146.93;;
66400;SDS011;53211;45.040;38.788;2022-12-18T04:03:09;694.83;;;145.47;;
66400;SDS011;53211;45.040;38.788;2022-12-18T04:05:43;702.65;;;146.80;;
66400;SDS011;53211;45.040;38.788;2022-12-18T04:08:11;715.72;;;145.60;;
66400;SDS011;53211;45.040;38.788;2022-12-18T04:10:42;702.25;;;146.15;;
66400;SDS011;53211;45.040;38.788;2022-12-18T04:13:08;698.60;;;147.60;;
66400;SDS011;53211;45.040;38.788;2022-12-18T04:15:35;700.20;;;146.60;;
66400;SDS011;53211;45.040;38.788;2022-12-18T04:18:04;700.90;;;147.00;;
66400;SDS011;53211;45.040;38.788;2022-12-18T04:20:38;700.50;;;147.20;;
66400;SDS011;53211;45.040;38.788;2022-12-18T04:23:04;696.40;;;145.70;;
66400;SDS011;53211;45.040;38.788;2022-12-18T04:25:31;702.20;;;147.20;;
66400;SDS011;53211;45.040;38.788;2022-12-18T04:28:06;701.00;;;147.15;;
66400;SDS011;53211;45.040;38.788;2022-12-18T04:30:33;699.83;;;147.35;;
66400;SDS011;53211;45.040;38.788;2022-12-18T04:33:00;701.40;;;148.00;;
66400;SDS011;53211;45.040;38.788;2022-12-18T04:35:27;701.80;;;147.40;;
66400;SDS011;53211;45.040;38.788;2022-12-18T04:37:53;701.77;;;146.33;;
66400;SDS011;53211;45.040;38.788;2022-12-18T04:40:19;713.10;;;146.90;;
66400;SDS011;53211;45.040;38.788;2022-12-18T04:42:47;701.70;;;150.25;;
66400;SDS011;53211;45.040;38.788;2022-12-18T04:45:12;700.70;;;149.00;;
66400;SDS011;53211;45.040;38.788;2022-12-18T04:47:38;702.30;;;149.40;;
66400;SDS011;53211;45.040;38.788;2022-12-18T04:50:05;706.53;;;149.27;;
66400;SDS011;53211;45.040;38.788;2022-12-18T04:52:31;702.60;;;149.35;;
66400;SDS011;53211;45.040;38.788;2022-12-18T04:54:57;703.70;;;148.37;;
66400;SDS011;53211;45.040;38.788;2022-12-18T04:57:23;697.70;;;150.50;;
66400;SDS011;53211;45.040;38.788;2022-12-18T04:59:48;701.00;;;148.00;;
66400;SDS011;53211;45.040;38.788;2022-12-18T05:02:14;705.97;;;148.97;;
66400;SDS011;53211;45.040;38.788;2022-12-18T05:04:40;706.42;;;149.13;;
66400;SDS011;53211;45.040;38.788;2022-12-18T05:07:06;704.50;;;148.40;;
66400;SDS011;53211;45.040;38.788;2022-12-18T05:09:32;705.77;;;148.60;;
66400;SDS011;53211;45.040;38.788;2022-12-18T05:11:58;706.93;;;149.50;;
66400;SDS011;53211;45.040;38.788;2022-12-18T05:14:24;704.47;;;148.33;;
66400;SDS011;53211;45.040;38.788;2022-12-18T05:16:52;708.10;;;147.10;;
66400;SDS011;53211;45.040;38.788;2022-12-18T05:19:18;738.07;;;145.83;;
66400;SDS011;53211;45.040;38.788;2022-12-18T05:21:44;727.75;;;147.55;;
66400;SDS011;53211;45.040;38.788;2022-12-18T05:24:10;697.63;;;149.50;;
66400;SDS011;53211;45.040;38.788;2022-12-18T05:26:36;695.35;;;150.25;;
66400;SDS011;53211;45.040;38.788;2022-12-18T05:29:02;687.80;;;152.80;;
66400;SDS011;53211;45.040;38.788;2022-12-18T05:31:28;690.70;;;152.30;;
66400;SDS011;53211;45.040;38.788;2022-12-18T05:33:54;692.33;;;150.63;;
66400;SDS011;53211;45.040;38.788;2022-12-18T05:36:20;690.40;;;150.87;;
66400;SDS011;53211;45.040;38.788;2022-12-18T05:38:46;696.33;;;150.97;;
66400;SDS011;53211;45.040;38.788;2022-12-18T05:41:12;696.35;;;152.40;;
66400;SDS011;53211;45.040;38.788;2022-12-18T05:43:38;693.90;;;150.85;;
66400;SDS011;53211;45.040;38.788;2022-12-18T05:46:05;709.00;;;150.10;;
66400;SDS011;53211;45.040;38.788;2022-12-18T05:48:33;709.55;;;150.35;;
66400;SDS011;53211;45.040;38.788;2022-12-18T05:51:06;712.15;;;150.40;;
66400;SDS011;53211;45.040;38.788;2022-12-18T05:53:35;715.30;;;150.27;;
66400;SDS011;53211;45.040;38.788;2022-12-18T05:56:02;708.50;;;159.10;;
66400;SDS011;53211;45.040;38.788;2022-12-18T05:58:29;692.60;;;153.30;;
66400;SDS011;53211;45.040;38.788;2022-12-18T06:00:56;701.20;;;153.07;;
66400;SDS011;53211;45.040;38.788;2022-12-18T06:03:23;706.20;;;152.20;;
66400;SDS011;53211;45.040;38.788;2022-12-18T06:05:49;705.45;;;152.45;;
66400;SDS011;53211;45.040;38.788;2022-12-18T06:08:15;697.30;;;150.10;;
66400;SDS011;53211;45.040;38.788;2022-12-18T06:10:41;704.80;;;152.30;;
66400;SDS011;53211;45.040;38.788;2022-12-18T06:13:07;706.80;;;150.57;;
66400;SDS011;53211;45.040;38.788;2022-12-18T06:15:35;700.07;;;152.57;;
66400;SDS011;53211;45.040;38.788;2022-12-18T06:18:02;705.90;;;153.45;;
66400;SDS011;53211;45.040;38.788;2022-12-18T06:20:28;701.20;;;153.15;;
66400;SDS011;53211;45.040;38.788;2022-12-18T06:22:54;708.20;;;153.45;;
66400;SDS011;53211;45.040;38.788;2022-12-18T06:25:20;700.88;;;153.15;;
66400;SDS011;53211;45.040;38.788;2022-12-18T06:27:47;707.20;;;154.30;;
66400;SDS011;53211;45.040;38.788;2022-12-18T06:30:13;711.05;;;151.60;;
66400;SDS011;53211;45.040;38.788;2022-12-18T06:32:39;723.40;;;149.60;;
66400;SDS011;53211;45.040;38.788;2022-12-18T06:35:05;716.80;;;150.00;;
66400;SDS011;53211;45.040;38.788;2022-12-18T06:37:34;714.70;;;153.15;;
66400;SDS011;53211;45.040;38.788;2022-12-18T06:40:00;714.53;;;152.73;;
66400;SDS011;53211;45.040;38.788;2022-12-18T06:42:26;713.70;;;151.70;;
66400;SDS011;53211;45.040;38.788;2022-12-18T06:44:54;714.45;;;152.00;;
66400;SDS011;53211;45.040;38.788;2022-12-18T06:47:19;711.63;;;153.23;;
66400;SDS011;53211;45.040;38.788;2022-12-18T06:49:45;708.90;;;153.80;;
66400;SDS011;53211;45.040;38.788;2022-12-18T06:52:11;717.70;;;152.10;;
66400;SDS011;53211;45.040;38.788;2022-12-18T06:54:37;715.90;;;151.80;;
66400;SDS011;53211;45.040;38.788;2022-12-18T06:57:03;717.40;;;152.30;;
66400;SDS011;53211;45.040;38.788;2022-12-18T06:59:29;716.65;;;152.95;;
66400;SDS011;53211;45.040;38.788;2022-12-18T07:01:55;723.15;;;157.40;;
66400;SDS011;53211;45.040;38.788;2022-12-18T07:04:22;717.80;;;153.90;;
66400;SDS011;53211;45.040;38.788;2022-12-18T07:06:52;719.00;;;152.60;;
66400;SDS011;53211;45.040;38.788;2022-12-18T07:09:18;720.40;;;151.80;;
66400;SDS011;53211;45.040;38.788;2022-12-18T07:11:44;719.60;;;152.30;;
66400;SDS011;53211;45.040;38.788;2022-12-18T07:14:10;718.20;;;152.70;;
66400;SDS011;53211;45.040;38.788;2022-12-18T07:16:36;715.00;;;155.70;;
66400;SDS011;53211;45.040;38.788;2022-12-18T07:19:02;736.50;;;149.40;;
66400;SDS011;53211;45.040;38.788;2022-12-18T07:21:27;712.20;;;155.30;;
66400;SDS011;53211;45.040;38.788;2022-12-18T07:23:54;709.35;;;153.73;;
66400;SDS011;53211;45.040;38.788;2022-12-18T07:26:20;709.75;;;152.90;;
66400;SDS011;53211;45.040;38.788;2022-12-18T07:28:47;712.43;;;153.97;;
66400;SDS011;53211;45.040;38.788;2022-12-18T07:31:17;707.05;;;151.77;;
66400;SDS011;53211;45.040;38.788;2022-12-18T07:33:45;717.00;;;153.30;;
66400;SDS011;53211;45.040;38.788;2022-12-18T07:36:12;717.13;;;153.30;;
66400;SDS011;53211;45.040;38.788;2022-12-18T07:38:39;726.20;;;151.00;;
66400;SDS011;53211;45.040;38.788;2022-12-18T07:41:07;696.45;;;157.82;;
66400;SDS011;53211;45.040;38.788;2022-12-18T07:43:41;702.70;;;158.37;;
66400;SDS011;53211;45.040;38.788;2022-12-18T07:46:07;707.60;;;157.95;;
66400;SDS011;53211;45.040;38.788;2022-12-18T07:48:34;711.30;;;153.65;;
66400;SDS011;53211;45.040;38.788;2022-12-18T07:51:01;717.45;;;155.80;;
66400;SDS011;53211;45.040;38.788;2022-12-18T07:53:29;732.75;;;151.30;;
66400;SDS011;53211;45.040;38.788;2022-12-18T07:55:58;755.10;;;151.55;;
66400;SDS011;53211;45.040;38.788;2022-12-18T07:58:25;740.75;;;151.15;;
66400;SDS011;53211;45.040;38.788;2022-12-18T08:00:51;745.65;;;150.30;;
66400;SDS011;53211;45.040;38.788;2022-12-18T08:03:18;738.00;;;150.60;;
66400;SDS011;53211;45.040;38.788;2022-12-18T08:05:44;743.65;;;152.15;;
66400;SDS011;53211;45.040;38.788;2022-12-18T08:08:10;749.05;;;150.75;;
66400;SDS011;53211;45.040;38.788;2022-12-18T08:10:37;751.20;;;151.00;;
66400;SDS011;53211;45.040;38.788;2022-12-18T08:13:04;764.10;;;148.95;;
66400;SDS011;53211;45.040;38.788;2022-12-18T08:15:30;823.40;;;143.23;;
66400;SDS011;53211;45.040;38.788;2022-12-18T08:17:56;799.43;;;147.63;;
66400;SDS011;53211;45.040;38.788;2022-12-18T08:20:22;770.35;;;149.60;;
66400;SDS011;53211;45.040;38.788;2022-12-18T08:22:48;761.95;;;151.35;;
66400;SDS011;53211;45.040;38.788;2022-12-18T08:25:14;772.77;;;149.83;;
66400;SDS011;53211;45.040;38.788;2022-12-18T08:27:40;771.35;;;151.50;;
66400;SDS011;53211;45.040;38.788;2022-12-18T08:30:06;773.05;;;151.70;;
66400;SDS011;53211;45.040;38.788;2022-12-18T08:32:33;807.60;;;146.65;;
66400;SDS011;53211;45.040;38.788;2022-12-18T08:34:59;803.23;;;149.47;;
66400;SDS011;53211;45.040;38.788;2022-12-18T08:37:25;784.85;;;151.35;;
66400;SDS011;53211;45.040;38.788;2022-12-18T08:39:51;813.00;;;148.60;;
66400;SDS011;53211;45.040;38.788;2022-12-18T08:42:17;832.70;;;146.35;;
66400;SDS011;53211;45.040;38.788;2022-12-18T08:45:01;815.60;;;148.50;;
66400;SDS011;53211;45.040;38.788;2022-12-18T08:47:27;765.83;;;156.20;;
66400;SDS011;53211;45.040;38.788;2022-12-18T08:49:54;767.30;;;153.60;;
66400;SDS011;53211;45.040;38.788;2022-12-18T08:52:20;770.25;;;154.20;;
66400;SDS011;53211;45.040;38.788;2022-12-18T08:54:47;752.80;;;161.00;;
66400;SDS011;53211;45.040;38.788;2022-12-18T08:57:13;776.50;;;153.55;;
66400;SDS011;53211;45.040;38.788;2022-12-18T08:59:39;767.35;;;156.05;;
66400;SDS011;53211;45.040;38.788;2022-12-18T09:02:05;766.17;;;159.18;;
66400;SDS011;53211;45.040;38.788;2022-12-18T09:04:31;748.67;;;162.07;;
66400;SDS011;53211;45.040;38.788;2022-12-18T09:06:57;732.50;;;171.70;;
66400;SDS011;53211;45.040;38.788;2022-12-18T09:09:23;741.38;;;173.55;;
66400;SDS011;53211;45.040;38.788;2022-12-18T09:11:49;747.47;;;165.30;;
66400;SDS011;53211;45.040;38.788;2022-12-18T09:14:15;772.10;;;158.80;;
66400;SDS011;53211;45.040;38.788;2022-12-18T09:16:41;746.85;;;166.50;;
66400;SDS011;53211;45.040;38.788;2022-12-18T09:19:07;753.35;;;163.75;;
66400;SDS011;53211;45.040;38.788;2022-12-18T09:21:38;789.42;;;152.20;;
66400;SDS011;53211;45.040;38.788;2022-12-18T09:24:04;807.00;;;147.98;;
66400;SDS011;53211;45.040;38.788;2022-12-18T09:26:31;833.57;;;161.83;;
66400;SDS011;53211;45.040;38.788;2022-12-18T09:28:57;805.75;;;149.20;;
66400;SDS011;53211;45.040;38.788;2022-12-18T09:31:23;800.05;;;149.52;;
66400;SDS011;53211;45.040;38.788;2022-12-18T09:33:50;792.13;;;150.07;;
66400;SDS011;53211;45.040;38.788;2022-12-18T09:36:17;786.60;;;152.20;;
66400;SDS011;53211;45.040;38.788;2022-12-18T09:38:43;786.97;;;151.30;;
66400;SDS011;53211;45.040;38.788;2022-12-18T09:43:54;813.50;;;149.70;;
66400;SDS011;53211;45.040;38.788;2022-12-18T09:46:28;803.40;;;150.60;;
66400;SDS011;53211;45.040;38.788;2022-12-18T09:49:06;848.47;;;147.53;;
66400;SDS011;53211;45.040;38.788;2022-12-18T09:51:39;802.80;;;151.98;;
66400;SDS011;53211;45.040;38.788;2022-12-18T09:54:35;800.15;;;148.50;;
66400;SDS011;53211;45.040;38.788;2022-12-18T09:57:10;762.20;;;153.50;;
66400;SDS011;53211;45.040;38.788;2022-12-18T10:00:20;768.47;;;154.03;;
66400;SDS011;53211;45.040;38.788;2022-12-18T10:02:46;755.30;;;154.70;;
66400;SDS011;53211;45.040;38.788;2022-12-18T10:05:14;764.05;;;151.50;;
66400;SDS011;53211;45.040;38.788;2022-12-18T10:21:20;756.40;;;153.95;;
66400;SDS011;53211;45.040;38.788;2022-12-18T10:26:40;778.15;;;149.55;;
66400;SDS011;53211;45.040;38.788;2022-12-18T10:29:16;766.20;;;154.60;;
66400;SDS011;53211;45.040;38.788;2022-12-18T10:31:42;769.90;;;152.70;;
66400;SDS011;53211;45.040;38.788;2022-12-18T10:34:11;780.05;;;149.45;;
66400;SDS011;53211;45.040;38.788;2022-12-18T10:36:40;769.20;;;151.25;;
66400;SDS011;53211;45.040;38.788;2022-12-18T10:39:39;764.90;;;150.98;;
66400;SDS011;53211;45.040;38.788;2022-12-18T10:42:11;768.35;;;150.45;;
66400;SDS011;53211;45.040;38.788;2022-12-18T10:44:42;760.15;;;148.65;;
66400;SDS011;53211;45.040;38.788;2022-12-18T10:47:12;762.80;;;148.70;;
66400;SDS011;53211;45.040;38.788;2022-12-18T10:49:50;771.50;;;152.63;;
66400;SDS011;53211;45.040;38.788;2022-12-18T10:52:21;764.88;;;149.73;;
66400;SDS011;53211;45.040;38.788;2022-12-18T10:54:53;749.22;;;153.88;;
66400;SDS011;53211;45.040;38.788;2022-12-18T10:59:57;751.70;;;154.32;;
66400;SDS011;53211;45.040;38.788;2022-12-18T11:02:26;752.65;;;156.05;;
66400;SDS011;53211;45.040;38.788;2022-12-18T11:05:02;745.15;;;152.85;;
66400;SDS011;53211;45.040;38.788;2022-12-18T11:07:48;748.30;;;153.70;;
66400;SDS011;53211;45.040;38.788;2022-12-18T11:10:16;748.90;;;151.40;;
66400;SDS011;53211;45.040;38.788;2022-12-18T11:12:44;756.65;;;149.25;;
66400;SDS011;53211;45.040;38.788;2022-12-18T11:15:15;767.53;;;148.90;;
66400;SDS011;53211;45.040;38.788;2022-12-18T11:17:47;761.80;;;152.70;;
66400;SDS011;53211;45.040;38.788;2022-12-18T11:20:34;770.70;;;150.98;;
66400;SDS011;53211;45.040;38.788;2022-12-18T11:23:03;778.03;;;150.50;;
66400;SDS011;53211;45.040;38.788;2022-12-18T11:25:32;778.63;;;150.02;;
66400;SDS011;53211;45.040;38.788;2022-12-18T11:27:59;781.47;;;149.23;;
66400;SDS011;53211;45.040;38.788;2022-12-18T11:30:29;779.70;;;149.70;;
66400;SDS011;53211;45.040;38.788;2022-12-18T11:35:47;775.83;;;149.18;;
66400;SDS011;53211;45.040;38.788;2022-12-18T11:40:58;776.47;;;149.30;;
66400;SDS011;53211;45.040;38.788;2022-12-18T11:43:34;759.70;;;151.40;;
66400;SDS011;53211;45.040;38.788;2022-12-18T11:46:16;763.72;;;150.95;;
66400;SDS011;53211;45.040;38.788;2022-12-18T11:49:07;750.85;;;147.98;;
66400;SDS011;53211;45.040;38.788;2022-12-18T11:54:26;754.28;;;150.80;;
66400;SDS011;53211;45.040;38.788;2022-12-18T11:57:03;754.60;;;152.80;;
66400;SDS011;53211;45.040;38.788;2022-12-18T12:04:59;751.65;;;148.55;;
66400;SDS011;53211;45.040;38.788;2022-12-18T12:07:53;764.80;;;151.40;;
66400;SDS011;53211;45.040;38.788;2022-12-18T12:27:02;750.65;;;149.00;;
66400;SDS011;53211;45.040;38.788;2022-12-18T12:29:56;749.50;;;147.43;;
66400;SDS011;53211;45.040;38.788;2022-12-18T12:32:57;763.70;;;148.70;;
66400;SDS011;53211;45.040;38.788;2022-12-18T12:38:47;770.10;;;148.80;;
66400;SDS011;53211;45.040;38.788;2022-12-18T12:41:23;774.75;;;149.10;;
66400;SDS011;53211;45.040;38.788;2022-12-18T12:44:16;756.10;;;151.40;;
66400;SDS011;53211;45.040;38.788;2022-12-18T12:47:06;755.25;;;150.95;;
66400;SDS011;53211;45.040;38.788;2022-12-18T12:49:41;752.25;;;149.60;;
66400;SDS011;53211;45.040;38.788;2022-12-18T12:52:17;747.97;;;149.67;;
66400;SDS011;53211;45.040;38.788;2022-12-18T12:54:55;747.30;;;149.70;;
66400;SDS011;53211;45.040;38.788;2022-12-18T12:57:34;746.85;;;149.07;;
66400;SDS011;53211;45.040;38.788;2022-12-18T13:08:08;756.40;;;149.20;;
66400;SDS011;53211;45.040;38.788;2022-12-18T13:10:37;755.80;;;151.30;;
66400;SDS011;53211;45.040;38.788;2022-12-18T13:18:28;761.70;;;150.80;;
66400;SDS011;53211;45.040;38.788;2022-12-18T13:34:22;724.80;;;154.40;;
66400;SDS011;53211;45.040;38.788;2022-12-18T13:36:57;736.87;;;149.97;;
66400;SDS011;53211;45.040;38.788;2022-12-18T13:39:56;731.00;;;151.43;;
66400;SDS011;53211;45.040;38.788;2022-12-18T13:48:05;723.20;;;153.60;;
66400;SDS011;53211;45.040;38.788;2022-12-18T13:50:48;720.40;;;153.30;;
66400;SDS011;53211;45.040;38.788;2022-12-18T13:56:16;723.33;;;150.73;;
66400;SDS011;53211;45.040;38.788;2022-12-18T13:58:44;701.72;;;159.23;;
66400;SDS011;53211;45.040;38.788;2022-12-18T14:01:22;693.45;;;158.25;;
66400;SDS011;53211;45.040;38.788;2022-12-18T14:03:50;702.80;;;157.25;;
66400;SDS011;53211;45.040;38.788;2022-12-18T14:06:34;700.50;;;157.20;;
66400;SDS011;53211;45.040;38.788;2022-12-18T14:09:01;697.05;;;159.20;;
66400;SDS011;53211;45.040;38.788;2022-12-18T14:11:28;699.70;;;155.83;;
66400;SDS011;53211;45.040;38.788;2022-12-18T14:13:55;702.20;;;160.40;;
66400;SDS011;53211;45.040;38.788;2022-12-18T14:16:22;705.72;;;156.45;;
66400;SDS011;53211;45.040;38.788;2022-12-18T14:18:50;700.00;;;154.20;;
66400;SDS011;53211;45.040;38.788;2022-12-18T14:21:25;699.20;;;155.30;;
66400;SDS011;53211;45.040;38.788;2022-12-18T14:26:33;719.13;;;153.03;;
66400;SDS011;53211;45.040;38.788;2022-12-18T14:29:00;706.50;;;153.30;;
66400;SDS011;53211;45.040;38.788;2022-12-18T14:31:43;691.20;;;154.80;;
66400;SDS011;53211;45.040;38.788;2022-12-18T14:34:16;691.50;;;157.35;;
66400;SDS011;53211;45.040;38.788;2022-12-18T14:36:51;710.40;;;157.95;;
66400;SDS011;53211;45.040;38.788;2022-12-18T14:39:18;705.10;;;157.50;;
66400;SDS011;53211;45.040;38.788;2022-12-18T14:41:44;700.10;;;155.70;;
66400;SDS011;53211;45.040;38.788;2022-12-18T14:44:11;696.30;;;154.50;;
66400;SDS011;53211;45.040;38.788;2022-12-18T14:46:39;703.00;;;153.30;;
66400;SDS011;53211;45.040;38.788;2022-12-18T14:49:21;700.70;;;152.30;;
66400;SDS011;53211;45.040;38.788;2022-12-18T14:51:52;693.17;;;151.93;;
66400;SDS011;53211;45.040;38.788;2022-12-18T14:54:21;690.00;;;153.90;;
66400;SDS011;53211;45.040;38.788;2022-12-18T14:56:49;706.05;;;151.20;;
66400;SDS011;53211;45.040;38.788;2022-12-18T14:59:26;689.35;;;151.95;;
66400;SDS011;53211;45.040;38.788;2022-12-18T15:02:01;694.27;;;152.07;;
66400;SDS011;53211;45.040;38.788;2022-12-18T15:04:36;694.73;;;152.00;;
66400;SDS011;53211;45.040;38.788;2022-12-18T15:07:05;692.55;;;154.90;;
66400;SDS011;53211;45.040;38.788;2022-12-18T15:09:36;697.55;;;156.38;;
66400;SDS011;53211;45.040;38.788;2022-12-18T15:12:04;688.60;;;153.50;;
66400;SDS011;53211;45.040;38.788;2022-12-18T15:14:40;688.50;;;154.00;;
66400;SDS011;53211;45.040;38.788;2022-12-18T15:17:17;694.05;;;154.27;;
66400;SDS011;53211;45.040;38.788;2022-12-18T15:19:45;712.23;;;154.03;;
66400;SDS011;53211;45.040;38.788;2022-12-18T15:22:24;685.30;;;152.30;;
66400;SDS011;53211;45.040;38.788;2022-12-18T15:24:59;696.03;;;150.10;;
66400;SDS011;53211;45.040;38.788;2022-12-18T15:27:33;701.72;;;149.68;;
66400;SDS011;53211;45.040;38.788;2022-12-18T15:32:35;701.87;;;151.93;;
66400;SDS011;53211;45.040;38.788;2022-12-18T15:37:48;695.75;;;151.90;;
66400;SDS011;53211;45.040;38.788;2022-12-18T15:40:16;695.15;;;156.20;;
66400;SDS011;53211;45.040;38.788;2022-12-18T15:42:46;695.00;;;153.00;;
66400;SDS011;53211;45.040;38.788;2022-12-18T15:45:32;700.73;;;154.73;;
66400;SDS011;53211;45.040;38.788;2022-12-18T15:47:58;693.05;;;151.85;;
66400;SDS011;53211;45.040;38.788;2022-12-18T15:50:24;670.80;;;151.50;;
66400;SDS011;53211;45.040;38.788;2022-12-18T15:52:51;693.73;;;156.87;;
66400;SDS011;53211;45.040;38.788;2022-12-18T15:55:20;685.40;;;153.48;;
66400;SDS011;53211;45.040;38.788;2022-12-18T15:58:07;691.03;;;150.97;;
66400;SDS011;53211;45.040;38.788;2022-12-18T16:00:34;685.00;;;154.93;;
66400;SDS011;53211;45.040;38.788;2022-12-18T16:03:06;688.13;;;152.43;;
66400;SDS011;53211;45.040;38.788;2022-12-18T16:05:34;687.00;;;152.40;;
66400;SDS011;53211;45.040;38.788;2022-12-18T16:08:01;673.80;;;151.00;;
66400;SDS011;53211;45.040;38.788;2022-12-18T16:10:27;683.00;;;153.20;;
66400;SDS011;53211;45.040;38.788;2022-12-18T16:12:53;680.35;;;151.60;;
66400;SDS011;53211;45.040;38.788;2022-12-18T16:15:20;694.20;;;152.80;;
66400;SDS011;53211;45.040;38.788;2022-12-18T16:17:47;675.73;;;151.23;;